Time;durP1;ratioP1;P1;durP2;ratioP2;P2;SDS_P1;SDS_P2;PMS_P1;PMS_P2;Temp;Humidity;BMP_temperature;BMP_pressure;BME280_temperature;BME280_humidity;BME280_pressure;Samples;Min_cycle;Max_cycle;Signal;HPM_P1;HPM_P2
2023/08/23 00:03:59;;;;;;;7.00;4.72;;;;;;;17.01;100.00;100997.89;5197667;55;1143188;-67
2023/08/23 00:09:06;;;;;;;7.53;4.30;;;;;;;17.01;100.00;100997.89;5210884;56;1141346;-66
2023/08/23 00:14:13;;;;;;;12.93;4.92;;;;;;;17.18;100.00;100996.60;5251678;55;1140948;-67
2023/08/23 00:19:18;;;;;;;9.70;5.40;;;;;;;17.36;100.00;100984.60;5188443;55;1142918;-65
2023/08/23 00:24:24;;;;;;;11.37;4.63;;;;;;;17.26;100.00;100987.01;5169927;55;1141058;-64
2023/08/23 00:29:31;;;;;;;8.00;3.80;;;;;;;16.79;100.00;100991.12;5289095;54;1142942;-65
2023/08/23 00:34:38;;;;;;;7.33;3.53;;;;;;;16.52;100.00;100990.05;5319398;55;1140706;-64
2023/08/23 00:39:45;;;;;;;10.00;3.47;;;;;;;16.59;100.00;100988.99;5328389;54;1140921;-64
2023/08/23 00:44:51;;;;;;;10.10;3.53;;;;;;;16.74;100.00;100989.38;5315183;55;1143102;-66
2023/08/23 00:49:57;;;;;;;5.87;3.00;;;;;;;16.86;100.00;100993.54;5266396;55;1143205;-66
2023/08/23 00:55:03;;;;;;;8.27;4.00;;;;;;;16.89;100.00;100993.25;5205310;55;1141620;-67
2023/08/23 01:00:10;;;;;;;8.50;3.90;;;;;;;16.98;100.00;100994.17;5234691;54;1140599;-66
2023/08/23 01:05:18;;;;;;;5.83;4.23;;;;;;;17.09;100.00;100993.51;5183947;56;1141391;-66
2023/08/23 01:10:39;;;;;;;8.00;4.30;;;;;;;17.11;100.00;100996.03;5251074;56;1141341;-66
2023/08/23 01:15:46;;;;;;;7.30;4.23;;;;;;;17.12;100.00;100982.48;5211430;56;1141099;-66
2023/08/23 01:20:54;;;;;;;12.03;4.47;;;;;;;17.12;100.00;100985.66;5233407;56;1140535;-67
2023/08/23 01:26:01;;;;;;;9.93;5.10;;;;;;;17.00;100.00;100990.38;5257148;55;1143159;-65
2023/08/23 01:31:10;;;;;;;7.17;4.13;;;;;;;16.98;100.00;100990.17;5083094;57;1141029;-66
2023/08/23 01:36:24;;;;;;;6.10;4.43;;;;;;;16.91;100.00;100993.95;5165055;56;1140571;-65
2023/08/23 01:41:30;;;;;;;12.07;4.27;;;;;;;16.83;100.00;100991.16;5197373;56;1141143;-65
2023/08/23 01:46:36;;;;;;;7.50;3.67;;;;;;;16.83;100.00;101001.84;5141073;57;1143154;-66
2023/08/23 01:51:42;;;;;;;10.07;3.63;;;;;;;16.87;100.00;100993.89;5213753;56;1140993;-66
2023/08/23 01:56:47;;;;;;;6.83;3.83;;;;;;;16.85;100.00;100991.36;5227328;55;1143077;-64
2023/08/23 02:01:53;;;;;;;10.80;3.55;;;;;;;16.82;100.00;100993.48;5143344;57;1140757;-67
2023/08/23 02:06:59;;;;;;;12.67;4.00;;;;;;;16.77;100.00;100993.95;5106320;57;1142901;-66
2023/08/23 02:12:07;;;;;;;9.93;3.93;;;;;;;16.69;100.00;100996.50;5105760;57;1143176;-65
2023/08/23 02:17:13;;;;;;;6.33;4.50;;;;;;;16.61;100.00;100993.70;5108923;58;1141313;-66
2023/08/23 02:22:18;;;;;;;7.77;4.60;;;;;;;16.66;100.00;100995.94;5096303;57;1140950;-64
2023/08/23 02:27:24;;;;;;;5.50;4.33;;;;;;;16.66;100.00;100991.44;5129861;57;1140848;-67
2023/08/23 02:32:30;;;;;;;5.25;2.92;;;;;;;16.62;100.00;100993.20;5125502;57;1140813;-66
2023/08/23 02:37:36;;;;;;;4.83;3.27;;;;;;;16.55;100.00;101004.95;5149283;57;1141021;-66
2023/08/23 02:42:41;;;;;;;7.73;2.90;;;;;;;16.38;100.00;100993.19;5090936;56;1140667;-67
2023/08/23 02:47:47;;;;;;;7.47;3.13;;;;;;;16.20;100.00;100992.25;5311665;54;1141125;-65
2023/08/23 02:52:52;;;;;;;5.67;3.43;;;;;;;16.26;100.00;100992.17;5192273;56;1140696;-65
2023/08/23 02:57:58;;;;;;;10.13;3.63;;;;;;;16.26;100.00;100986.34;5094487;56;1140589;-66
2023/08/23 03:03:04;;;;;;;8.60;3.27;;;;;;;16.25;100.00;100993.16;5089321;57;1143161;-66
2023/08/23 03:08:10;;;;;;;3.80;2.03;;;;;;;15.92;100.00;100987.31;5110816;56;1141135;-66
2023/08/23 03:13:16;;;;;;;7.00;2.90;;;;;;;15.60;100.00;100998.75;5062817;56;1140902;-64
2023/08/23 03:18:21;;;;;;;5.80;3.37;;;;;;;15.55;100.00;101011.19;5031598;56;1140952;-67
2023/08/23 03:23:27;;;;;;;4.27;3.23;;;;;;;15.67;100.00;101003.41;5062374;57;1141239;-66
2023/08/23 03:28:33;;;;;;;5.08;3.67;;;;;;;15.64;100.00;100989.02;4969659;57;1141095;-65
2023/08/23 03:33:40;;;;;;;7.10;3.57;;;;;;;15.74;100.00;100989.00;5104434;56;1140947;-65
2023/08/23 03:38:46;;;;;;;8.83;3.67;;;;;;;15.66;100.00;101000.38;5190696;57;1140980;-66
2023/08/23 03:43:51;;;;;;;16.23;3.63;;;;;;;15.64;100.00;100986.84;5061515;57;1141071;-67
2023/08/23 03:48:57;;;;;;;13.37;4.30;;;;;;;15.60;100.00;100986.27;5018067;57;1143173;-67
2023/08/23 03:54:03;;;;;;;13.40;4.40;;;;;;;15.45;100.00;100992.95;5037760;57;1142886;-64
2023/08/23 03:59:09;;;;;;;15.47;4.10;;;;;;;15.37;100.00;100990.16;5018322;57;1142891;-66
2023/08/23 04:04:15;;;;;;;13.93;4.30;;;;;;;15.47;100.00;100995.84;5018137;57;1143067;-66
2023/08/23 04:09:21;;;;;;;38.30;5.40;;;;;;;15.56;100.00;100987.55;5018555;57;1142918;-66
2023/08/23 04:14:27;;;;;;;11.07;3.80;;;;;;;15.62;100.00;100987.46;5039904;57;1143122;-67
2023/08/23 04:19:32;;;;;;;15.05;5.25;;;;;;;15.70;100.00;100988.47;5021004;57;1143312;-64
2023/08/23 04:24:38;;;;;;;16.13;4.30;;;;;;;15.75;100.00;100988.02;5017267;57;1142862;-66
2023/08/23 04:29:44;;;;;;;7.70;3.12;;;;;;;15.79;100.00;100992.09;5037854;57;1143212;-66
2023/08/23 04:34:50;;;;;;;16.57;4.90;;;;;;;15.71;100.00;100980.81;5018009;57;1140815;-66
2023/08/23 04:39:56;;;;;;;9.57;3.07;;;;;;;15.74;100.00;100983.66;5018256;57;1143205;-67
2023/08/23 04:45:02;;;;;;;3.33;2.77;;;;;;;15.80;100.00;100980.45;5105404;56;1140909;-67
2023/08/23 04:50:08;;;;;;;7.10;2.50;;;;;;;15.85;100.00;100988.88;5107044;56;1140852;-64
2023/08/23 04:55:14;;;;;;;12.30;2.57;;;;;;;15.77;100.00;100986.90;5107150;56;1141077;-65
2023/08/23 05:00:20;;;;;;;6.40;2.75;;;;;;;15.70;100.00;100979.62;5106962;56;1143069;-66
2023/08/23 05:05:25;;;;;;;3.13;2.50;;;;;;;15.77;100.00;100987.39;5127257;56;1141197;-66
2023/08/23 05:10:32;;;;;;;9.92;3.08;;;;;;;15.70;100.00;101001.80;5108762;56;1141090;-64
2023/08/23 05:15:38;;;;;;;4.17;3.00;;;;;;;15.51;100.00;101005.74;5219686;55;1141063;-66
2023/08/23 05:20:43;;;;;;;7.30;3.17;;;;;;;15.39;100.00;101010.37;5136342;56;1140713;-64
2023/08/23 05:25:51;;;;;;;5.27;3.20;;;;;;;15.42;100.00;101012.77;5218936;55;1140953;-65
2023/08/23 05:30:57;;;;;;;3.87;2.87;;;;;;;15.53;100.00;101025.61;5116114;56;1140875;-65
2023/08/23 05:36:04;;;;;;;7.58;3.80;;;;;;;15.67;100.00;101035.41;5238770;55;1140944;-65
2023/08/23 05:41:10;;;;;;;3.43;2.20;;;;;;;15.94;100.00;101033.37;5117293;56;1141156;-65
2023/08/23 05:46:16;;;;;;;8.93;2.17;;;;;;;16.26;100.00;101029.05;5225582;55;1141103;-65
2023/08/23 05:51:22;;;;;;;5.00;2.85;;;;;;;16.48;100.00;101031.90;5240582;55;1141189;-64
2023/08/23 05:56:28;;;;;;;6.00;3.20;;;;;;;16.73;100.00;101029.10;5266504;55;1150627;-67
2023/08/23 06:01:34;;;;;;;8.15;2.70;;;;;;;17.11;100.00;101032.92;5232923;55;1140988;-65
2023/08/23 06:06:40;;;;;;;5.83;2.73;;;;;;;17.39;100.00;101023.58;5239273;54;1140823;-65
2023/08/23 06:11:45;;;;;;;3.83;2.30;;;;;;;17.56;100.00;101022.27;5244620;55;1140756;-65
2023/08/23 06:16:52;;;;;;;7.93;2.40;;;;;;;17.65;100.00;101031.72;5068449;56;1140734;-67
2023/08/23 06:21:57;;;;;;;5.10;1.77;;;;;;;17.83;100.00;101024.55;5072757;56;1140990;-66
2023/08/23 06:27:03;;;;;;;3.20;2.70;;;;;;;17.97;100.00;101033.36;5093071;56;1141140;-66
2023/08/23 06:32:09;;;;;;;8.33;2.63;;;;;;;18.05;100.00;101036.09;5073265;55;1140743;-65
2023/08/23 06:37:15;;;;;;;4.47;1.57;;;;;;;18.07;100.00;101046.66;5073432;56;1141085;-66
2023/08/23 06:42:20;;;;;;;5.50;2.57;;;;;;;18.19;100.00;101044.91;5073814;55;1141100;-65
2023/08/23 06:47:26;;;;;;;3.17;2.30;;;;;;;18.39;100.00;101042.05;5103428;55;1141154;-64
2023/08/23 06:52:31;;;;;;;3.60;2.43;;;;;;;18.65;100.00;101030.86;5131759;55;1140855;-66
2023/08/23 06:57:37;;;;;;;9.28;2.60;;;;;;;18.98;100.00;101030.52;4941786;56;1140920;-64
2023/08/23 07:02:42;;;;;;;5.50;2.05;;;;;;;19.26;100.00;101021.74;5104568;55;1140874;-65
2023/08/23 07:07:48;;;;;;;4.55;2.15;;;;;;;19.62;100.00;100980.28;4979768;57;1140769;-65
2023/08/23 07:12:54;;;;;;;4.05;1.87;;;;;;;19.85;100.00;101017.22;5080399;56;1140789;-66
2023/08/23 07:17:59;;;;;;;7.35;1.98;;;;;;;20.11;100.00;101030.47;5098885;56;1140765;-66
2023/08/23 07:23:05;;;;;;;8.40;1.52;;;;;;;20.27;100.00;101025.93;5078081;56;1140822;-65
2023/08/23 07:28:11;;;;;;;4.95;1.75;;;;;;;20.33;100.00;101027.91;5077026;56;1141383;-67
2023/08/23 07:33:18;;;;;;;6.12;1.80;;;;;;;20.49;100.00;101023.56;5075886;55;1141050;-65
2023/08/23 07:38:24;;;;;;;2.72;1.60;;;;;;;20.63;100.00;101030.41;5110799;56;1140958;-64
2023/08/23 07:43:31;;;;;;;2.82;1.32;;;;;;;20.86;100.00;101026.49;5139942;56;1140715;-68
2023/08/23 07:48:38;;;;;;;6.03;1.37;;;;;;;20.96;100.00;101029.81;5203694;54;1140839;-65
2023/08/23 07:53:43;;;;;;;5.05;1.60;;;;;;;21.09;100.00;101034.63;5293054;55;1140826;-65
2023/08/23 07:58:49;;;;;;;5.97;1.82;;;;;;;21.19;100.00;101043.84;5179616;55;1141167;-65
2023/08/23 08:03:54;;;;;;;5.95;2.67;;;;;;;21.23;100.00;101041.18;5147010;56;1141059;-67
2023/08/23 08:09:00;;;;;;;4.37;1.72;;;;;;;21.32;100.00;101044.98;5212294;55;1140924;-65
2023/08/23 08:14:06;;;;;;;9.08;2.25;;;;;;;21.48;100.00;101049.95;5216059;55;1140743;-67
2023/08/23 08:19:12;;;;;;;8.25;1.92;;;;;;;21.72;100.00;101053.33;5221023;55;1140809;-67
2023/08/23 08:24:17;;;;;;;6.70;1.70;;;;;;;21.79;99.75;101055.31;5206929;55;1141247;-66
2023/08/23 08:29:23;;;;;;;3.90;1.65;;;;;;;21.96;98.78;101055.02;5228899;55;1138879;-65
2023/08/23 08:34:29;;;;;;;4.22;1.92;;;;;;;22.13;98.29;101048.19;5191171;55;1138919;-67
2023/08/23 08:39:35;;;;;;;7.17;2.45;;;;;;;22.19;95.11;101053.67;5204238;55;1138558;-67
2023/08/23 08:44:41;;;;;;;2.52;1.40;;;;;;;22.26;93.29;101060.03;5225650;55;1138551;-67
2023/08/23 08:49:46;;;;;;;3.70;1.70;;;;;;;22.40;94.14;101062.42;5234940;54;1138893;-65
2023/08/23 08:54:54;;;;;;;4.20;1.95;;;;;;;22.52;90.73;101054.22;5251360;54;1139107;-66
2023/08/23 09:00:01;;;;;;;2.50;1.32;;;;;;;22.70;92.41;101056.05;5261248;55;1138833;-67
2023/08/23 09:05:08;;;;;;;3.52;1.10;;;;;;;22.94;89.91;101054.97;5240177;55;1138816;-66
2023/08/23 09:10:15;;;;;;;1.62;1.37;;;;;;;23.09;87.61;101061.19;5236291;55;1139084;-67
2023/08/23 09:15:25;;;;;;;1.82;1.50;;;;;;;23.30;81.54;101059.08;5062156;56;1138715;-67
2023/08/23 09:20:30;;;;;;;4.58;1.50;;;;;;;23.44;83.03;101062.77;5091965;56;1138916;-67
2023/08/23 09:25:36;;;;;;;1.95;1.70;;;;;;;23.56;81.94;101060.44;5072551;56;1138842;-67
2023/08/23 09:30:42;;;;;;;2.27;1.50;;;;;;;23.68;83.06;101053.54;5073022;56;1138681;-68
2023/08/23 09:35:50;;;;;;;5.72;1.45;;;;;;;23.82;81.79;101049.95;5028013;56;1138857;-65
2023/08/23 09:40:57;;;;;;;6.10;1.47;;;;;;;24.01;81.25;101049.28;5072834;56;1139101;-67
2023/08/23 09:46:05;;;;;;;4.65;2.00;;;;;;;24.15;78.96;101047.02;5072746;56;1139073;-67
2023/08/23 09:51:12;;;;;;;8.40;1.22;;;;;;;24.21;76.29;101044.06;5092307;56;1138899;-66
2023/08/23 09:56:18;;;;;;;10.60;3.05;;;;;;;24.41;77.31;101038.84;5114258;56;1138729;-66
2023/08/23 10:01:26;;;;;;;8.25;1.72;;;;;;;24.53;74.30;101042.67;5031578;57;1141029;-67
2023/08/23 10:06:32;;;;;;;4.40;2.17;;;;;;;24.60;74.30;101037.30;5134228;56;1138850;-67
2023/08/23 10:11:39;;;;;;;6.38;2.00;;;;;;;24.72;72.81;101036.57;5007969;57;1138960;-68
2023/08/23 10:16:45;;;;;;;1.92;1.32;;;;;;;24.90;72.75;101040.11;5030153;57;1138672;-66
2023/08/23 10:21:51;;;;;;;3.05;1.27;;;;;;;24.96;71.69;101035.78;5050217;57;1138770;-67
2023/08/23 10:26:57;;;;;;;2.37;1.07;;;;;;;25.18;74.19;101030.08;5057419;56;1138773;-65
2023/08/23 10:32:20;;;;;;;4.50;1.10;;;;;;;25.43;72.20;101031.72;5072079;56;1138870;-64
2023/08/23 10:37:26;;;;;;;3.13;1.97;;;;;;;25.56;71.97;101029.56;5106001;56;1138874;-67
2023/08/23 10:42:32;;;;;;;5.60;1.75;;;;;;;25.46;68.84;101033.19;5047314;57;1139157;-66
2023/08/23 10:47:39;;;;;;;4.45;2.58;;;;;;;25.33;67.72;101027.22;5113390;56;1138794;-68
2023/08/23 10:52:44;;;;;;;13.68;2.37;;;;;;;25.36;70.16;101023.27;5116290;56;1138922;-64
2023/08/23 10:57:50;;;;;;;12.13;2.52;;;;;;;25.34;68.82;101018.05;5097735;55;1140884;-66
2023/08/23 11:02:57;;;;;;;4.35;2.55;;;;;;;25.29;69.13;101018.34;5073126;56;1140898;-67
2023/08/23 11:08:03;;;;;;;5.72;2.60;;;;;;;25.44;68.93;101013.08;5073471;56;1138948;-67
2023/08/23 11:13:09;;;;;;;4.15;1.92;;;;;;;25.61;68.02;100999.98;5093068;56;1138789;-66
2023/08/23 11:18:15;;;;;;;5.83;2.02;;;;;;;25.92;65.86;101003.50;5073363;56;1138511;-67
2023/08/23 11:23:21;;;;;;;4.83;2.10;;;;;;;26.12;66.30;101000.80;5073463;56;1138884;-66
2023/08/23 11:28:26;;;;;;;3.73;1.30;;;;;;;26.17;64.94;101003.70;5073817;55;1138796;-67
2023/08/23 11:33:37;;;;;;;5.10;1.42;;;;;;;26.07;64.97;101004.65;5010754;56;1138945;-64
2023/08/23 11:38:43;;;;;;;2.50;1.12;;;;;;;25.86;64.79;100999.73;5072769;56;1138655;-66
2023/08/23 11:43:50;;;;;;;6.37;1.22;;;;;;;25.89;66.21;100996.61;5072191;56;1138765;-64
2023/08/23 11:48:56;;;;;;;2.33;1.37;;;;;;;26.15;66.95;100995.77;5092090;56;1138637;-65
2023/08/23 11:54:02;;;;;;;3.85;1.40;;;;;;;26.46;66.58;100992.95;5072277;56;1138733;-66
2023/08/23 11:59:08;;;;;;;5.50;1.70;;;;;;;26.70;65.53;100986.03;5019934;56;1138555;-67
2023/08/23 12:04:14;;;;;;;2.87;1.80;;;;;;;26.82;61.72;100990.58;5092344;56;1138924;-66
2023/08/23 12:09:20;;;;;;;8.10;1.92;;;;;;;26.67;61.57;100983.21;5071894;56;1138743;-64
2023/08/23 12:14:28;;;;;;;5.30;1.10;;;;;;;26.55;64.64;100972.19;5083559;56;1138767;-66
2023/08/23 12:19:36;;;;;;;4.87;1.22;;;;;;;26.43;65.27;100981.20;5113564;56;1138762;-65
2023/08/23 12:24:41;;;;;;;7.68;1.42;;;;;;;26.38;64.10;100972.33;5159865;55;1138420;-67
2023/08/23 12:29:47;;;;;;;3.47;1.37;;;;;;;26.63;65.22;100965.16;5152473;55;1139101;-65
2023/08/23 12:34:52;;;;;;;5.40;1.98;;;;;;;26.88;64.31;100968.02;5174045;55;1138705;-66
2023/08/23 12:39:59;;;;;;;4.75;1.32;;;;;;;27.15;59.05;100955.17;5198162;55;1138927;-67
2023/08/23 12:45:05;;;;;;;9.50;1.62;;;;;;;27.13;59.24;100951.84;5223201;55;1138850;-66
2023/08/23 12:50:11;;;;;;;2.10;1.25;;;;;;;27.23;59.82;100952.19;5197890;55;1139094;-65
2023/08/23 12:55:17;;;;;;;7.72;1.35;;;;;;;27.24;58.95;100947.06;5185624;55;1138708;-66
2023/08/23 13:00:22;;;;;;;1.85;1.17;;;;;;;27.03;56.29;100958.27;5176290;55;1138785;-66
2023/08/23 13:05:28;;;;;;;3.30;1.27;;;;;;;27.02;57.12;100957.96;5178176;55;1138966;-65
2023/08/23 13:10:35;;;;;;;3.15;1.65;;;;;;;26.86;58.22;100950.27;5211839;55;1138664;-66
2023/08/23 13:15:40;;;;;;;3.90;1.48;;;;;;;27.05;58.61;100950.72;5186389;55;1138762;-64
2023/08/23 13:20:46;;;;;;;4.83;1.50;;;;;;;27.24;54.49;100947.59;5179945;55;1138660;-65
2023/08/23 13:25:52;;;;;;;4.70;1.10;;;;;;;27.36;56.13;100940.41;5201590;55;1138891;-64
2023/08/23 13:30:58;;;;;;;6.15;1.52;;;;;;;27.51;55.87;100941.46;5160937;55;1138558;-66
2023/08/23 13:36:04;;;;;;;6.62;1.50;;;;;;;27.56;54.04;100937.56;5206673;55;1138921;-65
2023/08/23 13:41:09;;;;;;;7.95;1.80;;;;;;;27.55;53.63;100928.58;5194175;55;1138874;-64
2023/08/23 13:46:15;;;;;;;9.53;2.87;;;;;;;27.51;55.24;100928.70;5194768;55;1139068;-64
2023/08/23 13:51:20;;;;;;;10.43;3.20;;;;;;;27.57;54.77;100925.67;5239562;55;1138776;-65
2023/08/23 13:56:26;;;;;;;7.60;1.75;;;;;;;27.60;53.22;100921.17;5240502;54;1140902;-63
2023/08/23 14:01:32;;;;;;;14.98;5.12;;;;;;;27.67;55.45;100913.78;5261193;55;1138730;-65
2023/08/23 14:06:37;;;;;;;2.30;1.12;;;;;;;27.88;53.13;100913.92;5242429;55;1140729;-66
2023/08/23 14:11:53;;;;;;;7.30;1.60;;;;;;;27.76;49.99;100906.20;5224197;55;1138715;-64
2023/08/23 14:16:58;;;;;;;1.90;1.32;;;;;;;27.65;52.53;100907.76;5261394;55;1138787;-63
2023/08/23 14:22:04;;;;;;;12.33;2.25;;;;;;;27.81;50.66;100896.30;5240592;55;1138632;-65
2023/08/23 14:27:10;;;;;;;14.50;1.60;;;;;;;27.95;51.34;100886.99;5227251;55;1140886;-64
2023/08/23 14:32:18;;;;;;;2.92;0.82;;;;;;;27.96;50.45;100881.00;5187173;55;1140804;-64
2023/08/23 14:37:23;;;;;;;1.37;0.95;;;;;;;27.91;51.54;100873.53;5147530;55;1138917;-65
2023/08/23 14:42:28;;;;;;;10.88;1.80;;;;;;;27.97;49.83;100873.14;5191983;55;1138640;-65
2023/08/23 14:47:34;;;;;;;6.50;4.37;;;;;;;27.90;49.97;100878.67;5217185;54;1140680;-65
2023/08/23 14:52:40;;;;;;;7.47;2.20;;;;;;;27.94;51.25;100874.98;5198765;54;1138705;-63
2023/08/23 14:57:46;;;;;;;4.60;1.62;;;;;;;27.85;49.01;100880.38;5240411;55;1139027;-64
2023/08/23 15:02:51;;;;;;;2.23;1.20;;;;;;;27.64;50.00;100864.80;5258653;54;1138526;-65
2023/08/23 15:07:57;;;;;;;4.12;1.42;;;;;;;27.61;50.18;100867.13;5239155;55;1138681;-65
2023/08/23 15:13:03;;;;;;;4.53;1.20;;;;;;;27.74;50.05;100858.02;5189911;55;1138755;-65
2023/08/23 15:18:08;;;;;;;8.88;1.22;;;;;;;27.88;51.05;100860.91;5195424;55;1138752;-66
2023/08/23 15:23:14;;;;;;;9.53;3.58;;;;;;;27.88;51.95;100858.19;5196280;55;1138879;-64
2023/08/23 15:28:20;;;;;;;7.87;1.95;;;;;;;27.75;50.55;100858.32;5184600;55;1138969;-65
2023/08/23 15:33:25;;;;;;;8.75;1.50;;;;;;;27.61;51.28;100858.45;5173198;55;1138890;-64
2023/08/23 15:38:31;;;;;;;8.25;2.40;;;;;;;27.62;51.40;100862.00;5203512;55;1139016;-65
2023/08/23 15:43:36;;;;;;;2.20;2.00;;;;;;;27.51;51.04;100859.42;5188581;54;1138694;-66
2023/08/23 15:48:42;;;;;;;4.37;2.67;;;;;;;27.46;52.68;100859.27;5195364;55;1138719;-64
2023/08/23 15:53:48;;;;;;;5.08;1.92;;;;;;;27.35;52.77;100851.82;5250040;55;1138606;-63
2023/08/23 15:58:53;;;;;;;3.25;1.45;;;;;;;27.36;53.10;100848.05;5224248;55;1138822;-64
2023/08/23 16:03:59;;;;;;;4.65;1.80;;;;;;;27.48;53.74;100841.40;5198058;55;1138676;-64
2023/08/23 16:09:05;;;;;;;4.12;1.17;;;;;;;27.66;54.05;100839.56;5243565;55;1138774;-67
2023/08/23 16:14:10;;;;;;;2.77;1.30;;;;;;;27.78;53.93;100838.86;5237601;55;1139105;-63
2023/08/23 16:19:16;;;;;;;2.30;1.27;;;;;;;27.78;51.89;100844.30;5236334;55;1138959;-65
2023/08/23 16:24:21;;;;;;;1.57;1.10;;;;;;;27.70;52.62;100836.41;5158058;55;1138813;-64
2023/08/23 16:29:27;;;;;;;6.92;1.10;;;;;;;27.69;52.69;100836.10;5260451;55;1138548;-65
2023/08/23 16:34:33;;;;;;;2.75;1.55;;;;;;;27.62;52.20;100824.78;5187350;54;1138518;-66
2023/08/23 16:39:38;;;;;;;5.67;1.55;;;;;;;27.54;51.50;100826.38;5208995;55;1138611;-66
2023/08/23 16:44:44;;;;;;;10.60;2.45;;;;;;;27.36;51.69;100826.32;5224904;55;1138878;-64
2023/08/23 16:49:49;;;;;;;5.17;1.95;;;;;;;27.25;53.19;100825.69;5185013;55;1140884;-65
2023/08/23 16:54:55;;;;;;;2.27;1.57;;;;;;;27.25;53.66;100821.61;5030802;56;1138613;-64
2023/08/23 17:00:01;;;;;;;3.92;2.30;;;;;;;27.25;53.71;100821.09;5054627;56;1138777;-66
2023/08/23 17:05:08;;;;;;;7.60;3.80;;;;;;;27.18;53.34;100826.28;5044125;57;1138855;-65
2023/08/23 17:10:13;;;;;;;7.08;4.08;;;;;;;27.09;53.98;100831.13;5035890;56;1138732;-66
2023/08/23 17:15:19;;;;;;;7.83;3.62;;;;;;;27.01;54.11;100830.58;5204645;55;1138925;-66
2023/08/23 17:20:26;;;;;;;4.28;1.77;;;;;;;26.82;54.72;100833.16;5199352;55;1138869;-66
2023/08/23 17:25:31;;;;;;;2.08;1.65;;;;;;;26.68;55.52;100828.85;5181787;55;1138872;-65
2023/08/23 17:30:37;;;;;;;5.33;1.85;;;;;;;26.58;56.54;100829.86;5181209;55;1138700;-66
2023/08/23 17:35:42;;;;;;;7.95;2.50;;;;;;;26.53;57.45;100837.27;5197613;55;1138630;-65
2023/08/23 17:40:48;;;;;;;9.50;2.30;;;;;;;26.44;58.08;100835.84;5185145;55;1138562;-66
2023/08/23 17:45:53;;;;;;;7.60;3.30;;;;;;;26.35;58.82;100830.88;5189675;55;1138793;-64
2023/08/23 17:51:00;;;;;;;8.88;3.35;;;;;;;26.25;59.39;100833.50;5257715;55;1138677;-64
2023/08/23 17:56:06;;;;;;;45.48;5.37;;;;;;;26.13;60.14;100837.06;5194170;55;1138734;-64
2023/08/23 18:01:16;;;;;;;6.95;2.12;;;;;;;26.11;61.12;100835.95;5235445;55;1140910;-66
2023/08/23 18:06:22;;;;;;;2.87;1.50;;;;;;;26.09;61.38;100835.32;5240170;55;1138759;-65
2023/08/23 18:11:28;;;;;;;7.03;3.77;;;;;;;26.06;61.73;100848.46;5261191;55;1138733;-65
2023/08/23 18:16:33;;;;;;;12.35;7.72;;;;;;;25.63;63.06;100844.89;5240166;55;1138945;-67
2023/08/23 18:21:39;;;;;;;18.30;5.22;;;;;;;25.63;63.06;100844.89;5239946;54;1140833;-67
2023/08/23 18:26:44;;;;;;;10.80;3.72;;;;;;;25.54;63.46;100855.56;5249352;55;1140823;-62
2023/08/23 18:31:50;;;;;;;18.95;3.20;;;;;;;25.41;64.00;100860.98;5180568;54;1140959;-63
2023/08/23 18:36:55;;;;;;;12.80;2.43;;;;;;;25.24;64.07;100865.45;5163076;55;1141092;-63
2023/08/23 18:42:01;;;;;;;11.22;2.05;;;;;;;25.11;64.64;100872.72;5160216;55;1141112;-63
2023/08/23 18:47:07;;;;;;;14.00;3.33;;;;;;;24.95;65.12;100868.52;5141081;55;1140843;-63
2023/08/23 18:52:13;;;;;;;6.47;2.25;;;;;;;24.83;65.42;100869.61;5213408;55;1140868;-64
2023/08/23 18:57:19;;;;;;;8.64;2.26;;;;;;;24.69;65.57;100875.17;5249999;55;1139205;-66
2023/08/23 19:02:25;;;;;;;6.30;2.10;;;;;;;24.56;65.65;100875.13;5257378;55;1138825;-62
2023/08/23 19:07:34;;;;;;;4.25;1.55;;;;;;;24.43;66.16;100882.66;5240283;55;1138864;-66
2023/08/23 19:12:37;;;;;;;2.50;2.00;;;;;;;24.29;66.84;100879.03;5252402;55;1138779;-65
2023/08/23 19:17:44;;;;;;;2.47;2.25;;;;;;;24.19;68.01;100880.72;5266963;54;1138735;-68
2023/08/23 19:22:51;;;;;;;13.85;2.10;;;;;;;23.96;69.29;100880.17;5026186;56;1138817;-66
2023/08/23 19:27:57;;;;;;;11.20;2.12;;;;;;;23.84;69.56;100881.72;5231656;54;1140877;-67
2023/08/23 19:33:03;;;;;;;4.92;2.33;;;;;;;23.76;69.55;100885.94;5149546;55;1140758;-67
2023/08/23 19:38:09;;;;;;;7.95;1.90;;;;;;;23.61;69.21;100881.98;5106227;55;1138732;-66
2023/08/23 19:43:18;;;;;;;5.85;1.90;;;;;;;23.48;69.26;100889.42;5071607;55;1138838;-67
2023/08/23 19:48:26;;;;;;;4.55;1.87;;;;;;;23.35;69.67;100892.00;5213372;55;1138895;-67
2023/08/23 19:53:32;;;;;;;5.30;2.00;;;;;;;23.26;69.99;100883.69;5106790;55;1138889;-67
2023/08/23 19:58:37;;;;;;;7.78;1.82;;;;;;;23.22;70.33;100884.30;5195288;55;1138596;-66
2023/08/23 20:03:44;;;;;;;4.44;1.86;;;;;;;23.21;70.41;100878.57;5219869;54;1138931;-68
2023/08/23 20:08:49;;;;;;;4.43;2.00;;;;;;;23.20;70.14;100878.25;5270609;55;1138760;-67
2023/08/23 20:13:56;;;;;;;5.95;2.00;;;;;;;23.19;70.44;100876.06;5238154;55;1138641;-67
2023/08/23 20:19:02;;;;;;;2.75;2.02;;;;;;;23.18;70.66;100877.60;5241095;54;1139135;-66
2023/08/23 20:24:07;;;;;;;9.43;2.20;;;;;;;23.20;70.87;100876.90;5260863;54;1138741;-66
2023/08/23 20:29:13;;;;;;;7.03;1.72;;;;;;;23.16;70.97;100872.39;5240447;55;1138696;-67
2023/08/23 20:34:18;;;;;;;8.00;2.22;;;;;;;23.07;71.17;100885.16;5213849;54;1138601;-66
2023/08/23 20:39:24;;;;;;;3.46;1.78;;;;;;;22.92;71.72;100885.72;5237207;54;1138723;-65
2023/08/23 20:44:30;;;;;;;4.65;1.92;;;;;;;22.81;72.23;100890.27;5242759;55;1138627;-66
2023/08/23 20:49:36;;;;;;;3.47;2.47;;;;;;;22.67;72.52;100895.14;5211507;55;1138993;-64
2023/08/23 20:54:42;;;;;;;7.17;2.17;;;;;;;22.56;73.09;100889.73;5200613;55;1138914;-65
2023/08/23 20:59:47;;;;;;;11.57;2.10;;;;;;;22.52;73.40;100887.08;5195178;55;1139096;-66
2023/08/23 21:04:53;;;;;;;3.50;2.35;;;;;;;22.50;73.76;100884.23;5167463;55;1140938;-64
2023/08/23 21:10:00;;;;;;;4.50;2.30;;;;;;;22.45;74.00;100886.17;5200097;55;1138722;-64
2023/08/23 21:15:06;;;;;;;7.70;2.08;;;;;;;22.40;74.45;100881.33;5179891;55;1139032;-63
2023/08/23 21:20:12;;;;;;;3.12;2.02;;;;;;;22.38;74.88;100882.03;5175532;55;1138839;-63
2023/08/23 21:25:18;;;;;;;9.80;2.50;;;;;;;22.41;75.19;100873.58;5175187;55;1138847;-64
2023/08/23 21:30:23;;;;;;;6.03;2.70;;;;;;;22.42;75.11;100871.72;5175334;55;1138873;-65
2023/08/23 21:35:30;;;;;;;7.33;2.83;;;;;;;22.34;75.09;100871.29;5195677;55;1138800;-62
2023/08/23 21:40:35;;;;;;;8.03;2.70;;;;;;;22.30;75.41;100861.09;5174865;55;1138874;-63
2023/08/23 21:45:41;;;;;;;4.75;2.95;;;;;;;22.20;75.46;100873.48;5174495;55;1138838;-62
2023/08/23 21:50:49;;;;;;;7.25;3.10;;;;;;;22.07;76.10;100874.64;5208061;55;1138647;-63
2023/08/23 21:55:56;;;;;;;8.18;3.62;;;;;;;21.92;76.61;100877.80;5245758;54;1138541;-64
2023/08/23 22:01:03;;;;;;;4.75;3.33;;;;;;;21.83;77.25;100873.02;5219263;55;1138761;-64
2023/08/23 22:06:15;;;;;;;9.00;2.90;;;;;;;21.82;77.78;100878.59;5266328;55;1138639;-63
2023/08/23 22:11:22;;;;;;;7.55;2.70;;;;;;;21.76;77.87;100872.06;5245709;55;1138852;-67
2023/08/23 22:16:27;;;;;;;9.68;2.90;;;;;;;21.87;78.60;100873.47;5187116;55;1138910;-65
2023/08/23 22:21:33;;;;;;;6.78;2.98;;;;;;;21.96;78.62;100870.52;5208314;55;1138858;-67
2023/08/23 22:26:39;;;;;;;9.38;3.25;;;;;;;21.96;78.17;100875.91;5187741;55;1138940;-66
2023/08/23 22:31:44;;;;;;;4.45;2.67;;;;;;;21.89;78.29;100873.61;5188024;55;1138894;-66
2023/08/23 22:36:50;;;;;;;4.12;2.33;;;;;;;21.75;78.45;100879.30;5207993;55;1138777;-66
2023/08/23 22:41:55;;;;;;;5.70;3.05;;;;;;;21.73;79.54;100877.80;5187226;55;1138659;-66
2023/08/23 22:47:02;;;;;;;3.35;2.67;;;;;;;21.71;80.18;100878.50;5187612;55;1138998;-66
2023/08/23 22:52:07;;;;;;;9.93;3.02;;;;;;;21.70;81.12;100890.28;5203512;56;1138818;-65
2023/08/23 22:57:13;;;;;;;7.53;3.00;;;;;;;21.68;80.68;100888.31;5196647;55;1138809;-65
2023/08/23 23:02:18;;;;;;;4.55;2.65;;;;;;;21.54;80.67;100893.95;5187582;55;1138706;-65